sensor_id;sensor_type;location;lat;lon;timestamp;pressure;altitude;pressure_sealevel;temperature;humidity
74578;BME280;63173;49.086;33.418;2023-02-01T00:00:09;99875.84;;;-1.35;95.68
74578;BME280;63173;49.086;33.418;2023-02-01T00:02:35;99868.94;;;-1.43;96.09
74578;BME280;63173;49.086;33.418;2023-02-01T00:05:05;99866.88;;;-1.41;96.68
74578;BME280;63173;49.086;33.418;2023-02-01T00:07:30;99877.09;;;-1.38;96.40
74578;BME280;63173;49.086;33.418;2023-02-01T00:09:56;99906.28;;;-1.49;95.44
74578;BME280;63173;49.086;33.418;2023-02-01T00:12:21;99900.75;;;-1.48;96.70
74578;BME280;63173;49.086;33.418;2023-02-01T00:14:47;99885.66;;;-1.36;97.19
74578;BME280;63173;49.086;33.418;2023-02-01T00:17:31;99882.16;;;-1.54;97.15
74578;BME280;63173;49.086;33.418;2023-02-01T00:19:56;99871.06;;;-1.51;96.13
74578;BME280;63173;49.086;33.418;2023-02-01T00:22:21;99874.25;;;-1.61;96.60
74578;BME280;63173;49.086;33.418;2023-02-01T00:24:47;99881.78;;;-1.58;97.01
74578;BME280;63173;49.086;33.418;2023-02-01T00:27:12;99872.94;;;-1.34;96.57
74578;BME280;63173;49.086;33.418;2023-02-01T00:29:43;99867.09;;;-1.42;97.16
74578;BME280;63173;49.086;33.418;2023-02-01T00:32:09;99875.25;;;-1.19;96.00
74578;BME280;63173;49.086;33.418;2023-02-01T00:34:34;99872.59;;;-1.19;95.93
74578;BME280;63173;49.086;33.418;2023-02-01T00:37:00;99863.56;;;-1.18;94.86
74578;BME280;63173;49.086;33.418;2023-02-01T00:39:25;99856.72;;;-1.50;95.54
74578;BME280;63173;49.086;33.418;2023-02-01T00:41:51;99855.19;;;-1.64;96.09
74578;BME280;63173;49.086;33.418;2023-02-01T00:44:16;99860.03;;;-1.55;97.42
74578;BME280;63173;49.086;33.418;2023-02-01T00:46:41;99855.47;;;-1.48;96.42
74578;BME280;63173;49.086;33.418;2023-02-01T00:49:07;99853.91;;;-1.55;96.54
74578;BME280;63173;49.086;33.418;2023-02-01T00:51:34;99848.00;;;-1.57;96.48
74578;BME280;63173;49.086;33.418;2023-02-01T00:53:59;99849.59;;;-1.56;97.22
74578;BME280;63173;49.086;33.418;2023-02-01T00:56:25;99844.72;;;-1.59;96.68
74578;BME280;63173;49.086;33.418;2023-02-01T00:58:53;99839.91;;;-1.69;97.48
74578;BME280;63173;49.086;33.418;2023-02-01T01:01:21;99848.50;;;-1.67;97.83
74578;BME280;63173;49.086;33.418;2023-02-01T01:04:00;99857.50;;;-1.68;97.24
74578;BME280;63173;49.086;33.418;2023-02-01T01:06:31;99857.75;;;-1.51;96.95
74578;BME280;63173;49.086;33.418;2023-02-01T01:08:58;99852.41;;;-1.51;97.95
74578;BME280;63173;49.086;33.418;2023-02-01T01:11:27;99852.22;;;-1.32;96.51
74578;BME280;63173;49.086;33.418;2023-02-01T01:13:54;99855.63;;;-1.25;97.09
74578;BME280;63173;49.086;33.418;2023-02-01T01:16:22;99851.31;;;-1.44;96.40
74578;BME280;63173;49.086;33.418;2023-02-01T01:18:47;99852.84;;;-1.72;96.63
74578;BME280;63173;49.086;33.418;2023-02-01T01:21:14;99858.53;;;-1.69;97.25
74578;BME280;63173;49.086;33.418;2023-02-01T01:23:40;99864.16;;;-1.59;97.37
74578;BME280;63173;49.086;33.418;2023-02-01T01:26:08;99853.50;;;-1.59;97.60
74578;BME280;63173;49.086;33.418;2023-02-01T01:28:34;99851.31;;;-1.62;96.73
74578;BME280;63173;49.086;33.418;2023-02-01T01:31:00;99855.88;;;-1.69;96.61
74578;BME280;63173;49.086;33.418;2023-02-01T01:33:25;99838.69;;;-1.73;97.54
74578;BME280;63173;49.086;33.418;2023-02-01T01:35:50;99841.28;;;-1.66;96.94
74578;BME280;63173;49.086;33.418;2023-02-01T01:38:16;99846.56;;;-1.60;96.60
74578;BME280;63173;49.086;33.418;2023-02-01T01:40:45;99837.16;;;-1.62;97.21
74578;BME280;63173;49.086;33.418;2023-02-01T01:43:15;99840.28;;;-1.65;97.77
74578;BME280;63173;49.086;33.418;2023-02-01T01:45:41;99835.00;;;-1.72;97.52
74578;BME280;63173;49.086;33.418;2023-02-01T01:48:15;99842.13;;;-1.66;97.85
74578;BME280;63173;49.086;33.418;2023-02-01T01:50:56;99840.06;;;-1.64;96.96
74578;BME280;63173;49.086;33.418;2023-02-01T01:53:35;99836.28;;;-1.56;97.17
74578;BME280;63173;49.086;33.418;2023-02-01T01:56:03;99830.63;;;-1.66;97.10
74578;BME280;63173;49.086;33.418;2023-02-01T01:58:30;99827.94;;;-1.60;96.98
74578;BME280;63173;49.086;33.418;2023-02-01T02:00:58;99822.78;;;-1.79;97.56
74578;BME280;63173;49.086;33.418;2023-02-01T02:03:27;99829.88;;;-1.92;98.23
74578;BME280;63173;49.086;33.418;2023-02-01T02:05:57;99838.00;;;-1.86;97.29
74578;BME280;63173;49.086;33.418;2023-02-01T02:08:24;99825.44;;;-1.79;97.22
74578;BME280;63173;49.086;33.418;2023-02-01T02:10:51;99814.41;;;-1.83;98.13
74578;BME280;63173;49.086;33.418;2023-02-01T02:13:38;99821.50;;;-1.95;98.30
74578;BME280;63173;49.086;33.418;2023-02-01T02:19:22;99819.38;;;-1.86;98.42
74578;BME280;63173;49.086;33.418;2023-02-01T02:27:08;99822.47;;;-1.89;98.08
74578;BME280;63173;49.086;33.418;2023-02-01T02:37:53;99823.50;;;-1.91;98.35
74578;BME280;63173;49.086;33.418;2023-02-01T02:40:37;99819.38;;;-1.86;97.98
74578;BME280;63173;49.086;33.418;2023-02-01T02:50:01;99823.06;;;-1.87;98.80
74578;BME280;63173;49.086;33.418;2023-02-01T02:53:04;99817.03;;;-2.01;98.61
74578;BME280;63173;49.086;33.418;2023-02-01T02:55:51;99817.69;;;-2.06;98.67
74578;BME280;63173;49.086;33.418;2023-02-01T02:58:19;99817.06;;;-2.08;98.84
74578;BME280;63173;49.086;33.418;2023-02-01T03:01:04;99824.69;;;-2.11;98.68
74578;BME280;63173;49.086;33.418;2023-02-01T03:03:48;99826.16;;;-2.15;99.39
74578;BME280;63173;49.086;33.418;2023-02-01T03:06:33;99827.44;;;-2.24;98.46
74578;BME280;63173;49.086;33.418;2023-02-01T03:09:02;99832.50;;;-2.16;98.54
74578;BME280;63173;49.086;33.418;2023-02-01T03:11:30;99825.75;;;-2.19;98.85
74578;BME280;63173;49.086;33.418;2023-02-01T03:14:18;99827.59;;;-2.19;98.78
74578;BME280;63173;49.086;33.418;2023-02-01T03:16:50;99829.06;;;-2.23;98.69
74578;BME280;63173;49.086;33.418;2023-02-01T03:19:33;99815.13;;;-2.19;99.52
74578;BME280;63173;49.086;33.418;2023-02-01T03:22:04;99825.75;;;-2.19;99.64
74578;BME280;63173;49.086;33.418;2023-02-01T03:27:17;99822.25;;;-2.13;99.66
74578;BME280;63173;49.086;33.418;2023-02-01T03:29:54;99827.13;;;-2.10;98.88
74578;BME280;63173;49.086;33.418;2023-02-01T03:32:21;99824.44;;;-2.03;99.62
74578;BME280;63173;49.086;33.418;2023-02-01T03:34:47;99820.41;;;-2.12;99.10
74578;BME280;63173;49.086;33.418;2023-02-01T03:37:18;99825.91;;;-2.14;99.06
74578;BME280;63173;49.086;33.418;2023-02-01T03:39:52;99832.06;;;-2.13;99.95
74578;BME280;63173;49.086;33.418;2023-02-01T03:42:36;99829.84;;;-2.16;99.72
74578;BME280;63173;49.086;33.418;2023-02-01T03:47:37;99823.94;;;-2.18;99.02
74578;BME280;63173;49.086;33.418;2023-02-01T03:50:09;99828.19;;;-2.17;99.40
74578;BME280;63173;49.086;33.418;2023-02-01T03:52:43;99825.31;;;-2.16;99.49
74578;BME280;63173;49.086;33.418;2023-02-01T03:55:11;99831.31;;;-2.20;100.00
74578;BME280;63173;49.086;33.418;2023-02-01T03:57:53;99835.72;;;-2.08;99.44
74578;BME280;63173;49.086;33.418;2023-02-01T04:00:21;99827.00;;;-2.21;99.46
74578;BME280;63173;49.086;33.418;2023-02-01T04:02:48;99833.59;;;-2.24;99.49
74578;BME280;63173;49.086;33.418;2023-02-01T04:05:14;99841.34;;;-2.22;100.00
74578;BME280;63173;49.086;33.418;2023-02-01T04:07:40;99845.38;;;-2.13;100.00
74578;BME280;63173;49.086;33.418;2023-02-01T04:10:06;99845.84;;;-2.23;99.47
74578;BME280;63173;49.086;33.418;2023-02-01T04:12:31;99859.66;;;-2.08;100.00
74578;BME280;63173;49.086;33.418;2023-02-01T04:14:57;99852.00;;;-2.22;99.56
74578;BME280;63173;49.086;33.418;2023-02-01T04:17:23;99852.53;;;-2.14;100.00
74578;BME280;63173;49.086;33.418;2023-02-01T04:19:48;99854.81;;;-2.17;99.64
74578;BME280;63173;49.086;33.418;2023-02-01T04:22:14;99848.47;;;-2.16;99.90
74578;BME280;63173;49.086;33.418;2023-02-01T04:24:39;99852.44;;;-2.25;99.47
74578;BME280;63173;49.086;33.418;2023-02-01T04:27:05;99850.78;;;-2.26;99.46
74578;BME280;63173;49.086;33.418;2023-02-01T04:29:30;99855.84;;;-2.18;99.29
74578;BME280;63173;49.086;33.418;2023-02-01T04:31:55;99856.03;;;-2.44;100.00
74578;BME280;63173;49.086;33.418;2023-02-01T04:34:21;99855.72;;;-2.30;100.00
74578;BME280;63173;49.086;33.418;2023-02-01T04:36:48;99858.16;;;-2.28;100.00
74578;BME280;63173;49.086;33.418;2023-02-01T04:39:13;99860.22;;;-2.30;99.28
74578;BME280;63173;49.086;33.418;2023-02-01T04:41:38;99862.19;;;-2.50;99.98
74578;BME280;63173;49.086;33.418;2023-02-01T04:44:04;99857.84;;;-2.45;100.00
74578;BME280;63173;49.086;33.418;2023-02-01T04:46:29;99860.22;;;-2.61;100.00
74578;BME280;63173;49.086;33.418;2023-02-01T04:48:55;99863.09;;;-2.69;100.00
74578;BME280;63173;49.086;33.418;2023-02-01T04:51:20;99857.53;;;-2.61;100.00
74578;BME280;63173;49.086;33.418;2023-02-01T04:53:46;99862.66;;;-2.60;100.00
74578;BME280;63173;49.086;33.418;2023-02-01T04:56:11;99868.41;;;-2.69;100.00
74578;BME280;63173;49.086;33.418;2023-02-01T04:58:36;99868.97;;;-2.61;100.00
74578;BME280;63173;49.086;33.418;2023-02-01T05:01:03;99874.94;;;-2.65;100.00
74578;BME280;63173;49.086;33.418;2023-02-01T05:03:33;99868.56;;;-2.58;100.00
74578;BME280;63173;49.086;33.418;2023-02-01T05:05:59;99880.44;;;-2.60;100.00
74578;BME280;63173;49.086;33.418;2023-02-01T05:08:25;99879.41;;;-2.59;100.00
74578;BME280;63173;49.086;33.418;2023-02-01T05:10:52;99879.59;;;-2.54;100.00
74578;BME280;63173;49.086;33.418;2023-02-01T05:13:18;99878.97;;;-2.56;100.00
74578;BME280;63173;49.086;33.418;2023-02-01T05:16:01;99883.22;;;-2.42;100.00
74578;BME280;63173;49.086;33.418;2023-02-01T05:18:28;99885.06;;;-2.43;100.00
74578;BME280;63173;49.086;33.418;2023-02-01T05:20:54;99887.25;;;-2.33;100.00
74578;BME280;63173;49.086;33.418;2023-02-01T05:23:19;99892.38;;;-2.38;100.00
74578;BME280;63173;49.086;33.418;2023-02-01T05:25:45;99891.28;;;-2.24;100.00
74578;BME280;63173;49.086;33.418;2023-02-01T05:28:10;99892.09;;;-2.24;100.00
74578;BME280;63173;49.086;33.418;2023-02-01T05:30:36;99897.38;;;-2.17;100.00
74578;BME280;63173;49.086;33.418;2023-02-01T05:33:02;99901.31;;;-2.20;100.00
74578;BME280;63173;49.086;33.418;2023-02-01T05:35:27;99907.22;;;-2.18;100.00
74578;BME280;63173;49.086;33.418;2023-02-01T05:37:53;99896.59;;;-2.24;100.00
74578;BME280;63173;49.086;33.418;2023-02-01T05:40:18;99899.25;;;-2.18;100.00
74578;BME280;63173;49.086;33.418;2023-02-01T05:42:44;99897.25;;;-1.98;100.00
74578;BME280;63173;49.086;33.418;2023-02-01T05:45:09;99905.09;;;-2.09;100.00
74578;BME280;63173;49.086;33.418;2023-02-01T05:47:35;99897.28;;;-2.04;100.00
74578;BME280;63173;49.086;33.418;2023-02-01T05:50:01;99901.84;;;-2.11;100.00
74578;BME280;63173;49.086;33.418;2023-02-01T05:52:26;99891.38;;;-2.06;100.00
74578;BME280;63173;49.086;33.418;2023-02-01T05:54:52;99890.88;;;-1.97;100.00
74578;BME280;63173;49.086;33.418;2023-02-01T05:57:18;99897.03;;;-1.96;100.00
74578;BME280;63173;49.086;33.418;2023-02-01T05:59:43;99896.88;;;-2.01;100.00
74578;BME280;63173;49.086;33.418;2023-02-01T06:02:13;99906.75;;;-1.83;100.00
74578;BME280;63173;49.086;33.418;2023-02-01T06:04:38;99902.31;;;-1.89;100.00
74578;BME280;63173;49.086;33.418;2023-02-01T06:07:05;99901.72;;;-1.92;100.00
74578;BME280;63173;49.086;33.418;2023-02-01T06:09:32;99907.22;;;-1.86;100.00
74578;BME280;63173;49.086;33.418;2023-02-01T06:11:57;99900.34;;;-1.76;100.00
74578;BME280;63173;49.086;33.418;2023-02-01T06:14:23;99906.09;;;-1.72;100.00
74578;BME280;63173;49.086;33.418;2023-02-01T06:16:49;99902.13;;;-1.63;100.00
74578;BME280;63173;49.086;33.418;2023-02-01T06:19:14;99908.47;;;-1.64;100.00
74578;BME280;63173;49.086;33.418;2023-02-01T06:21:40;99915.59;;;-1.58;100.00
74578;BME280;63173;49.086;33.418;2023-02-01T06:24:05;99909.44;;;-1.59;100.00
74578;BME280;63173;49.086;33.418;2023-02-01T06:26:31;99908.66;;;-1.59;100.00
74578;BME280;63173;49.086;33.418;2023-02-01T06:28:57;99912.69;;;-1.57;100.00
74578;BME280;63173;49.086;33.418;2023-02-01T06:31:22;99914.69;;;-1.46;100.00
74578;BME280;63173;49.086;33.418;2023-02-01T06:33:48;99912.88;;;-1.52;100.00
74578;BME280;63173;49.086;33.418;2023-02-01T06:36:14;99909.16;;;-1.51;99.84
74578;BME280;63173;49.086;33.418;2023-02-01T06:38:46;99916.94;;;-1.49;99.66
74578;BME280;63173;49.086;33.418;2023-02-01T06:41:12;99924.50;;;-1.46;99.78
74578;BME280;63173;49.086;33.418;2023-02-01T06:43:38;99918.97;;;-1.27;100.00
74578;BME280;63173;49.086;33.418;2023-02-01T06:46:08;99920.78;;;-1.21;99.51
74578;BME280;63173;49.086;33.418;2023-02-01T06:48:34;99923.63;;;-1.16;99.83
74578;BME280;63173;49.086;33.418;2023-02-01T06:51:00;99918.63;;;-1.30;99.95
74578;BME280;63173;49.086;33.418;2023-02-01T06:53:26;99915.53;;;-1.27;100.00
74578;BME280;63173;49.086;33.418;2023-02-01T06:55:56;99919.25;;;-1.10;100.00
74578;BME280;63173;49.086;33.418;2023-02-01T06:58:22;99923.63;;;-1.16;99.62
74578;BME280;63173;49.086;33.418;2023-02-01T07:00:47;99923.03;;;-1.00;99.61
74578;BME280;63173;49.086;33.418;2023-02-01T07:03:13;99924.34;;;-1.09;99.31
74578;BME280;63173;49.086;33.418;2023-02-01T07:05:39;99929.59;;;-1.20;100.00
74578;BME280;63173;49.086;33.418;2023-02-01T07:08:04;99919.25;;;-0.92;100.00
74578;BME280;63173;49.086;33.418;2023-02-01T07:10:30;99920.81;;;-0.84;99.29
74578;BME280;63173;49.086;33.418;2023-02-01T07:12:58;99927.13;;;-0.79;98.87
74578;BME280;63173;49.086;33.418;2023-02-01T07:15:23;99924.44;;;-0.79;100.00
74578;BME280;63173;49.086;33.418;2023-02-01T07:17:49;99930.84;;;-0.80;99.62
74578;BME280;63173;49.086;33.418;2023-02-01T07:20:15;99930.75;;;-0.55;99.10
74578;BME280;63173;49.086;33.418;2023-02-01T07:22:41;99921.69;;;-0.54;98.55
74578;BME280;63173;49.086;33.418;2023-02-01T07:25:06;99919.78;;;-0.65;99.44
74578;BME280;63173;49.086;33.418;2023-02-01T07:27:35;99922.97;;;-0.75;98.24
74578;BME280;63173;49.086;33.418;2023-02-01T07:30:01;99922.00;;;-0.80;98.59
74578;BME280;63173;49.086;33.418;2023-02-01T07:32:28;99928.09;;;-0.55;99.71
74578;BME280;63173;49.086;33.418;2023-02-01T07:34:53;99928.88;;;-0.55;99.49
74578;BME280;63173;49.086;33.418;2023-02-01T07:37:19;99919.47;;;-0.57;99.37
74578;BME280;63173;49.086;33.418;2023-02-01T07:39:44;99916.81;;;-0.57;99.34
74578;BME280;63173;49.086;33.418;2023-02-01T07:42:09;99915.69;;;-0.50;99.54
74578;BME280;63173;49.086;33.418;2023-02-01T07:44:35;99914.94;;;-0.39;99.79
74578;BME280;63173;49.086;33.418;2023-02-01T07:47:00;99904.13;;;-0.44;99.53
74578;BME280;63173;49.086;33.418;2023-02-01T07:49:26;99921.13;;;-0.74;100.00
74578;BME280;63173;49.086;33.418;2023-02-01T07:51:51;99920.38;;;-0.63;100.00
74578;BME280;63173;49.086;33.418;2023-02-01T07:54:17;99917.47;;;-0.62;100.00
74578;BME280;63173;49.086;33.418;2023-02-01T07:56:42;99914.44;;;-0.65;100.00
74578;BME280;63173;49.086;33.418;2023-02-01T07:59:08;99901.19;;;-0.54;100.00
74578;BME280;63173;49.086;33.418;2023-02-01T08:01:33;99919.03;;;-0.54;100.00
74578;BME280;63173;49.086;33.418;2023-02-01T08:04:01;99922.28;;;-0.52;100.00
74578;BME280;63173;49.086;33.418;2023-02-01T08:06:29;99912.56;;;-0.47;100.00
74578;BME280;63173;49.086;33.418;2023-02-01T08:08:56;99914.06;;;-0.51;100.00
74578;BME280;63173;49.086;33.418;2023-02-01T08:11:22;99921.25;;;-0.51;100.00
74578;BME280;63173;49.086;33.418;2023-02-01T08:13:48;99915.22;;;-0.29;100.00
74578;BME280;63173;49.086;33.418;2023-02-01T08:16:15;99919.09;;;-0.43;99.93
74578;BME280;63173;49.086;33.418;2023-02-01T08:18:41;99910.84;;;-0.41;100.00
74578;BME280;63173;49.086;33.418;2023-02-01T08:21:12;99911.69;;;-0.41;100.00
74578;BME280;63173;49.086;33.418;2023-02-01T08:23:39;99910.13;;;-0.19;100.00
74578;BME280;63173;49.086;33.418;2023-02-01T08:26:15;99918.47;;;-0.27;100.00
74578;BME280;63173;49.086;33.418;2023-02-01T08:28:44;99913.69;;;-0.07;100.00
74578;BME280;63173;49.086;33.418;2023-02-01T08:31:12;99914.53;;;0.06;99.72
74578;BME280;63173;49.086;33.418;2023-02-01T08:33:40;99910.94;;;0.00;100.00
74578;BME280;63173;49.086;33.418;2023-02-01T08:36:07;99919.75;;;0.12;99.58
74578;BME280;63173;49.086;33.418;2023-02-01T08:38:35;99907.13;;;0.19;99.05
74578;BME280;63173;49.086;33.418;2023-02-01T08:41:05;99916.03;;;0.02;98.82
74578;BME280;63173;49.086;33.418;2023-02-01T08:43:31;99902.72;;;0.13;99.01
74578;BME280;63173;49.086;33.418;2023-02-01T08:45:56;99901.44;;;0.16;98.42
74578;BME280;63173;49.086;33.418;2023-02-01T08:48:22;99902.03;;;0.29;97.92
74578;BME280;63173;49.086;33.418;2023-02-01T08:50:47;99906.97;;;0.03;97.79
74578;BME280;63173;49.086;33.418;2023-02-01T08:53:12;99898.28;;;0.07;98.43
74578;BME280;63173;49.086;33.418;2023-02-01T08:55:39;99900.09;;;-0.05;98.62
74578;BME280;63173;49.086;33.418;2023-02-01T08:58:04;99895.72;;;0.12;98.34
74578;BME280;63173;49.086;33.418;2023-02-01T09:00:30;99888.69;;;0.41;98.61
74578;BME280;63173;49.086;33.418;2023-02-01T09:02:55;99888.59;;;0.47;98.30
74578;BME280;63173;49.086;33.418;2023-02-01T09:05:21;99894.97;;;0.35;98.24
74578;BME280;63173;49.086;33.418;2023-02-01T09:07:48;99886.97;;;0.46;97.38
74578;BME280;63173;49.086;33.418;2023-02-01T09:10:13;99880.56;;;0.24;97.33
74578;BME280;63173;49.086;33.418;2023-02-01T09:12:39;99875.06;;;0.19;98.01
74578;BME280;63173;49.086;33.418;2023-02-01T09:15:05;99873.25;;;0.31;97.53
74578;BME280;63173;49.086;33.418;2023-02-01T09:17:32;99876.03;;;0.36;97.63
74578;BME280;63173;49.086;33.418;2023-02-01T09:19:58;99870.69;;;0.36;97.90
74578;BME280;63173;49.086;33.418;2023-02-01T09:22:23;99870.59;;;0.54;97.56
74578;BME280;63173;49.086;33.418;2023-02-01T09:24:49;99868.84;;;0.48;97.43
74578;BME280;63173;49.086;33.418;2023-02-01T09:27:15;99864.44;;;0.65;97.47
74578;BME280;63173;49.086;33.418;2023-02-01T09:29:40;99864.09;;;0.62;97.08
74578;BME280;63173;49.086;33.418;2023-02-01T09:32:05;99860.69;;;0.66;96.86
74578;BME280;63173;49.086;33.418;2023-02-01T09:34:32;99861.53;;;0.55;97.23
74578;BME280;63173;49.086;33.418;2023-02-01T09:36:58;99861.75;;;0.77;96.84
74578;BME280;63173;49.086;33.418;2023-02-01T09:39:23;99862.00;;;0.87;96.00
74578;BME280;63173;49.086;33.418;2023-02-01T09:42:12;99864.78;;;0.80;94.97
74578;BME280;63173;49.086;33.418;2023-02-01T09:47:55;99852.13;;;0.64;96.61
74578;BME280;63173;49.086;33.418;2023-02-01T09:50:30;99851.06;;;0.77;95.88
74578;BME280;63173;49.086;33.418;2023-02-01T09:53:00;99856.28;;;0.83;96.32
74578;BME280;63173;49.086;33.418;2023-02-01T09:55:40;99847.41;;;1.06;95.72
74578;BME280;63173;49.086;33.418;2023-02-01T09:58:08;99839.00;;;1.26;95.33
74578;BME280;63173;49.086;33.418;2023-02-01T10:00:38;99841.56;;;1.21;94.83
74578;BME280;63173;49.086;33.418;2023-02-01T12:07:23;99789.91;;;3.77;82.77
74578;BME280;63173;49.086;33.418;2023-02-01T12:10:01;99781.44;;;3.91;83.21
74578;BME280;63173;49.086;33.418;2023-02-01T12:12:42;99791.94;;;4.65;79.59
74578;BME280;63173;49.086;33.418;2023-02-01T12:18:18;99781.59;;;4.52;78.52
74578;BME280;63173;49.086;33.418;2023-02-01T12:21:05;99775.81;;;5.32;75.51
74578;BME280;63173;49.086;33.418;2023-02-01T12:26:27;99773.34;;;5.21;76.62
74578;BME280;63173;49.086;33.418;2023-02-01T12:34:53;99771.81;;;5.50;75.89
74578;BME280;63173;49.086;33.418;2023-02-01T12:42:50;99763.22;;;5.68;73.95
74578;BME280;63173;49.086;33.418;2023-02-01T12:45:35;99772.38;;;5.62;73.66
74578;BME280;63173;49.086;33.418;2023-02-01T12:50:53;99768.41;;;6.30;70.29
74578;BME280;63173;49.086;33.418;2023-02-01T12:53:26;99769.47;;;5.94;70.88
74578;BME280;63173;49.086;33.418;2023-02-01T12:55:55;99764.50;;;5.35;73.24
74578;BME280;63173;49.086;33.418;2023-02-01T12:58:40;99774.34;;;5.87;70.88
74578;BME280;63173;49.086;33.418;2023-02-01T13:04:52;99764.97;;;5.17;73.34
74578;BME280;63173;49.086;33.418;2023-02-01T13:07:01;99771.97;;;4.56;74.16
74578;BME280;63173;49.086;33.418;2023-02-01T13:10:01;99767.84;;;4.39;75.03
74578;BME280;63173;49.086;33.418;2023-02-01T13:12:43;99775.34;;;3.73;77.07
74578;BME280;63173;49.086;33.418;2023-02-01T13:15:51;99773.66;;;3.94;77.18
74578;BME280;63173;49.086;33.418;2023-02-01T13:18:14;99776.13;;;3.42;79.95
74578;BME280;63173;49.086;33.418;2023-02-01T13:21:02;99780.25;;;3.50;79.04
74578;BME280;63173;49.086;33.418;2023-02-01T13:23:33;99776.09;;;3.96;78.60
74578;BME280;63173;49.086;33.418;2023-02-01T13:25:59;99775.16;;;4.12;77.82
74578;BME280;63173;49.086;33.418;2023-02-01T13:39:43;99770.91;;;3.57;77.23
74578;BME280;63173;49.086;33.418;2023-02-01T13:42:15;99767.69;;;3.55;77.52
74578;BME280;63173;49.086;33.418;2023-02-01T13:44:58;99773.25;;;3.49;78.53
74578;BME280;63173;49.086;33.418;2023-02-01T13:47:31;99769.28;;;3.56;79.55
74578;BME280;63173;49.086;33.418;2023-02-01T13:50:01;99769.72;;;3.75;78.43
74578;BME280;63173;49.086;33.418;2023-02-01T13:52:29;99762.94;;;3.41;79.73
74578;BME280;63173;49.086;33.418;2023-02-01T13:55:24;99767.25;;;3.68;79.71
74578;BME280;63173;49.086;33.418;2023-02-01T13:58:20;99768.84;;;3.64;79.13
74578;BME280;63173;49.086;33.418;2023-02-01T14:00:44;99774.50;;;3.41;80.09
74578;BME280;63173;49.086;33.418;2023-02-01T14:03:13;99773.06;;;3.87;79.68
74578;BME280;63173;49.086;33.418;2023-02-01T14:16:14;99767.22;;;3.37;80.75
74578;BME280;63173;49.086;33.418;2023-02-01T14:23:46;99767.69;;;3.07;83.25
74578;BME280;63173;49.086;33.418;2023-02-01T14:26:45;99766.41;;;3.15;82.89
74578;BME280;63173;49.086;33.418;2023-02-01T14:37:24;99776.09;;;2.72;83.05
74578;BME280;63173;49.086;33.418;2023-02-01T14:39:54;99777.66;;;2.68;82.37
74578;BME280;63173;49.086;33.418;2023-02-01T14:47:53;99783.22;;;2.45;84.67
74578;BME280;63173;49.086;33.418;2023-02-01T14:58:16;99787.16;;;2.21;84.29
74578;BME280;63173;49.086;33.418;2023-02-01T15:00:50;99778.47;;;2.14;84.21
74578;BME280;63173;49.086;33.418;2023-02-01T15:06:22;99789.34;;;2.08;84.85
74578;BME280;63173;49.086;33.418;2023-02-01T15:08:49;99792.50;;;2.05;84.42
74578;BME280;63173;49.086;33.418;2023-02-01T15:11:16;99792.03;;;2.08;84.48
74578;BME280;63173;49.086;33.418;2023-02-01T15:13:51;99792.44;;;2.00;84.29
74578;BME280;63173;49.086;33.418;2023-02-01T15:16:19;99794.22;;;1.94;85.04
74578;BME280;63173;49.086;33.418;2023-02-01T15:18:45;99794.38;;;2.04;85.22
74578;BME280;63173;49.086;33.418;2023-02-01T15:21:21;99795.69;;;2.02;84.94
74578;BME280;63173;49.086;33.418;2023-02-01T15:23:47;99799.25;;;1.90;85.38
74578;BME280;63173;49.086;33.418;2023-02-01T15:26:31;99805.50;;;1.96;85.38
74578;BME280;63173;49.086;33.418;2023-02-01T15:28:59;99794.72;;;1.91;86.04
74578;BME280;63173;49.086;33.418;2023-02-01T15:31:36;99793.41;;;1.93;85.91
74578;BME280;63173;49.086;33.418;2023-02-01T15:34:02;99796.47;;;1.85;85.75
74578;BME280;63173;49.086;33.418;2023-02-01T15:36:27;99797.38;;;1.91;86.62
74578;BME280;63173;49.086;33.418;2023-02-01T15:41:39;99795.72;;;1.57;87.87
74578;BME280;63173;49.086;33.418;2023-02-01T15:44:19;99803.25;;;1.60;87.72
74578;BME280;63173;49.086;33.418;2023-02-01T15:46:47;99813.06;;;1.54;88.18
74578;BME280;63173;49.086;33.418;2023-02-01T15:51:51;99807.63;;;1.49;88.70
74578;BME280;63173;49.086;33.418;2023-02-01T15:54:25;99810.50;;;1.48;88.81
74578;BME280;63173;49.086;33.418;2023-02-01T15:56:53;99808.19;;;1.51;88.37
74578;BME280;63173;49.086;33.418;2023-02-01T15:59:24;99813.09;;;1.43;88.79
74578;BME280;63173;49.086;33.418;2023-02-01T18:07:25;99793.25;;;0.99;89.70
74578;BME280;63173;49.086;33.418;2023-02-01T18:09:50;99794.75;;;1.07;88.81
74578;BME280;63173;49.086;33.418;2023-02-01T18:12:19;99785.34;;;1.04;88.52
74578;BME280;63173;49.086;33.418;2023-02-01T18:14:45;99789.38;;;1.07;88.35
74578;BME280;63173;49.086;33.418;2023-02-01T18:17:11;99794.06;;;1.00;88.36
74578;BME280;63173;49.086;33.418;2023-02-01T18:19:37;99790.69;;;1.04;88.81
74578;BME280;63173;49.086;33.418;2023-02-01T18:22:02;99801.41;;;0.92;89.32
74578;BME280;63173;49.086;33.418;2023-02-01T18:24:29;99793.59;;;0.91;90.05
74578;BME280;63173;49.086;33.418;2023-02-01T18:26:58;99789.56;;;0.88;90.29
74578;BME280;63173;49.086;33.418;2023-02-01T18:29:23;99790.41;;;0.77;91.76
74578;BME280;63173;49.086;33.418;2023-02-01T18:31:49;99792.25;;;0.77;91.72
74578;BME280;63173;49.086;33.418;2023-02-01T18:34:15;99789.81;;;0.75;92.05
74578;BME280;63173;49.086;33.418;2023-02-01T18:36:49;99797.59;;;0.77;92.31
74578;BME280;63173;49.086;33.418;2023-02-01T18:39:15;99787.38;;;0.74;92.76
74578;BME280;63173;49.086;33.418;2023-02-01T18:41:42;99798.63;;;0.76;93.28
74578;BME280;63173;49.086;33.418;2023-02-01T18:44:17;99789.50;;;0.60;93.84
74578;BME280;63173;49.086;33.418;2023-02-01T18:46:43;99794.59;;;0.62;94.72
74578;BME280;63173;49.086;33.418;2023-02-01T18:49:08;99786.13;;;0.53;94.28
74578;BME280;63173;49.086;33.418;2023-02-01T18:51:36;99797.38;;;0.55;94.32
74578;BME280;63173;49.086;33.418;2023-02-01T18:54:01;99791.47;;;0.53;95.44
74578;BME280;63173;49.086;33.418;2023-02-01T18:56:27;99797.53;;;0.49;95.66
74578;BME280;63173;49.086;33.418;2023-02-01T18:58:52;99799.63;;;0.47;95.34
74578;BME280;63173;49.086;33.418;2023-02-01T19:01:20;99788.78;;;0.42;95.83